createdAt,value
2019-05-19T00:01:33.986Z,13.00
2019-05-19T00:04:22.950Z,13.00
2019-05-19T00:07:12.382Z,12.90
2019-05-19T00:10:02.159Z,12.90
2019-05-19T00:12:51.879Z,12.80
2019-05-19T00:15:41.252Z,12.80
2019-05-19T00:18:30.321Z,12.70
2019-05-19T00:21:18.974Z,12.70
2019-05-19T00:24:07.394Z,12.70
2019-05-19T00:26:56.586Z,12.70
2019-05-19T00:29:45.978Z,12.60
2019-05-19T00:32:35.238Z,12.60
2019-05-19T00:35:24.640Z,12.60
2019-05-19T00:38:13.766Z,12.60
2019-05-19T00:41:02.739Z,12.70
2019-05-19T00:43:52.179Z,12.70
2019-05-19T00:46:42.336Z,12.70
2019-05-19T00:49:40.980Z,12.80
2019-05-19T00:52:22.060Z,12.80
2019-05-19T00:55:11.630Z,12.80
2019-05-19T00:58:02.359Z,12.80
2019-05-19T01:00:51.618Z,12.80
2019-05-19T01:03:41.008Z,12.80
2019-05-19T01:06:30.116Z,12.80
2019-05-19T01:09:19.415Z,12.80
2019-05-19T01:12:08.892Z,12.80
2019-05-19T01:14:57.990Z,12.80
2019-05-19T01:17:47.430Z,12.90
2019-05-19T01:20:37.112Z,12.90
2019-05-19T01:23:26.263Z,12.80
2019-05-19T01:26:15.213Z,12.90
2019-05-19T01:29:04.917Z,12.90
2019-05-19T01:31:54.501Z,12.90
2019-05-19T01:34:43.650Z,13.00
2019-05-19T01:37:32.973Z,12.90
2019-05-19T01:40:22.200Z,13.00
2019-05-19T01:43:10.873Z,13.10
2019-05-19T01:46:00.134Z,13.00
2019-05-19T01:48:49.105Z,12.90
2019-05-19T01:51:38.667Z,13.00
2019-05-19T01:54:27.201Z,12.90
2019-05-19T01:57:17.105Z,12.90
2019-05-19T02:00:08.355Z,12.90
2019-05-19T02:02:57.791Z,13.00
2019-05-19T02:05:47.067Z,13.00
2019-05-19T02:08:36.332Z,13.00
2019-05-19T02:11:25.090Z,13.00
2019-05-19T02:14:14.843Z,13.00
2019-05-19T02:17:03.380Z,12.90
2019-05-19T02:19:52.900Z,12.90
2019-05-19T02:22:42.273Z,12.90
2019-05-19T02:25:31.440Z,12.90
2019-05-19T02:28:20.425Z,12.80
2019-05-19T02:31:09.983Z,12.80
2019-05-19T02:33:59.315Z,12.80
2019-05-19T02:36:49.028Z,12.70
2019-05-19T02:39:38.053Z,12.70
2019-05-19T02:42:29.513Z,12.70
2019-05-19T02:45:19.379Z,12.70
2019-05-19T02:48:09.637Z,12.70
2019-05-19T02:51:02.541Z,12.80
2019-05-19T02:53:52.638Z,12.70
2019-05-19T02:56:43.245Z,12.70
2019-05-19T02:59:33.131Z,12.80
2019-05-19T03:02:21.959Z,12.70
2019-05-19T03:05:11.595Z,12.60
2019-05-19T03:08:01.236Z,12.50
2019-05-19T03:10:50.490Z,12.40
2019-05-19T03:13:40.079Z,12.30
2019-05-19T03:16:29.100Z,12.30
2019-05-19T03:19:18.306Z,12.30
2019-05-19T03:22:07.560Z,12.30
2019-05-19T03:24:56.673Z,12.40
2019-05-19T03:27:45.663Z,12.40
2019-05-19T03:30:38.931Z,12.40
2019-05-19T03:33:29.314Z,12.40
2019-05-19T03:36:18.027Z,12.30
2019-05-19T03:39:08.313Z,12.40
2019-05-19T03:41:57.888Z,12.40
2019-05-19T03:44:47.161Z,12.30
2019-05-19T03:47:35.939Z,12.30
2019-05-19T03:50:25.395Z,12.30
2019-05-19T03:53:14.145Z,12.20
2019-05-19T03:56:03.275Z,12.20
2019-05-19T03:58:52.789Z,12.30
2019-05-19T04:01:42.017Z,12.30
2019-05-19T04:04:31.334Z,12.20
2019-05-19T04:07:20.672Z,12.20
2019-05-19T04:10:11.437Z,12.20
2019-05-19T04:13:00.780Z,12.20
2019-05-19T04:15:49.664Z,12.10
2019-05-19T04:18:39.540Z,12.20
2019-05-19T04:21:28.645Z,12.20
2019-05-19T04:24:18.068Z,12.20
2019-05-19T04:27:07.175Z,12.30
2019-05-19T04:29:56.700Z,12.30
2019-05-19T04:32:45.409Z,12.30
2019-05-19T04:35:35.235Z,12.40
2019-05-19T04:38:24.039Z,12.40
2019-05-19T04:41:13.263Z,12.30
2019-05-19T04:44:02.439Z,12.40
2019-05-19T04:46:51.045Z,12.30
2019-05-19T04:49:40.358Z,12.30
2019-05-19T04:52:30.055Z,12.20
2019-05-19T04:55:19.617Z,12.30
2019-05-19T04:58:08.625Z,12.40
2019-05-19T05:00:57.947Z,12.40
2019-05-19T05:03:46.900Z,12.40
2019-05-19T05:06:36.591Z,12.50
2019-05-19T05:09:25.751Z,12.50
2019-05-19T05:12:15.017Z,12.60
2019-05-19T05:15:06.141Z,12.60
2019-05-19T05:17:54.794Z,12.70
2019-05-19T05:20:44.373Z,12.70
2019-05-19T05:23:33.710Z,12.70
2019-05-19T05:26:23.288Z,12.90
2019-05-19T05:29:12.787Z,12.90
2019-05-19T05:32:02.367Z,12.80
2019-05-19T05:34:51.463Z,12.90
2019-05-19T05:37:41.046Z,12.90
2019-05-19T05:40:30.582Z,13.00
2019-05-19T05:43:19.675Z,13.00
2019-05-19T05:46:08.506Z,13.10
2019-05-19T05:48:57.313Z,13.10
2019-05-19T05:51:46.126Z,13.20
2019-05-19T05:54:34.614Z,13.30
2019-05-19T05:57:23.741Z,13.40
2019-05-19T06:00:15.828Z,13.50
2019-05-19T06:03:03.914Z,13.60
2019-05-19T06:05:53.593Z,13.60
2019-05-19T06:08:44.731Z,13.70
2019-05-19T06:11:34.189Z,13.70
2019-05-19T06:14:23.545Z,13.80
2019-05-19T06:17:12.729Z,13.80
2019-05-19T06:20:02.031Z,13.90
2019-05-19T06:22:56.678Z,14.00
2019-05-19T06:25:43.107Z,14.10
2019-05-19T06:28:32.508Z,14.10
2019-05-19T06:31:21.603Z,14.00
2019-05-19T06:34:10.669Z,14.20
2019-05-19T06:37:03.272Z,14.10
2019-05-19T06:39:52.137Z,14.10
2019-05-19T06:42:41.302Z,14.10
2019-05-19T06:45:30.715Z,14.40
2019-05-19T06:48:19.990Z,14.60
2019-05-19T06:51:09.284Z,14.60
2019-05-19T06:53:58.410Z,14.60
2019-05-19T06:56:47.413Z,14.60
2019-05-19T06:59:36.665Z,14.50
2019-05-19T07:02:26.365Z,14.60
2019-05-19T07:05:15.954Z,14.60
2019-05-19T07:08:05.109Z,14.90
2019-05-19T07:10:54.251Z,15.30
2019-05-19T07:13:43.658Z,15.60
2019-05-19T07:16:32.912Z,15.60
2019-05-19T07:19:21.948Z,15.20
2019-05-19T07:22:10.956Z,15.10
2019-05-19T07:25:00.002Z,15.20
2019-05-19T07:27:48.970Z,15.20
2019-05-19T07:30:38.242Z,15.20
2019-05-19T07:33:28.949Z,15.30
2019-05-19T07:36:18.134Z,16.00
2019-05-19T07:39:08.121Z,16.50
2019-05-19T07:41:55.936Z,17.10
2019-05-19T07:44:45.367Z,17.20
2019-05-19T07:47:33.661Z,17.40
2019-05-19T07:50:21.910Z,17.10
2019-05-19T07:53:10.669Z,16.90
2019-05-19T07:55:59.154Z,16.80
2019-05-19T07:58:47.342Z,17.10
2019-05-19T08:01:35.238Z,17.80
2019-05-19T08:04:23.648Z,18.40
2019-05-19T08:07:12.613Z,18.60
2019-05-19T08:10:01.608Z,18.90
2019-05-19T08:12:51.136Z,19.30
2019-05-19T08:15:40.261Z,19.30
2019-05-19T08:18:29.543Z,19.20
2019-05-19T08:21:18.839Z,19.40
2019-05-19T08:24:07.920Z,19.60
2019-05-19T08:26:57.483Z,19.20
2019-05-19T08:29:47.512Z,18.70
2019-05-19T08:32:36.742Z,19.00
2019-05-19T08:35:26.206Z,19.10
2019-05-19T08:38:15.634Z,18.70
2019-05-19T08:41:04.866Z,19.10
2019-05-19T08:43:53.711Z,19.40
2019-05-19T08:46:43.075Z,19.20
2019-05-19T08:49:32.718Z,18.90
2019-05-19T08:52:22.166Z,19.10
2019-05-19T08:55:12.544Z,19.40
2019-05-19T08:58:01.720Z,19.50
2019-05-19T09:00:50.608Z,19.50
2019-05-19T09:03:40.238Z,19.30
2019-05-19T09:06:29.141Z,19.10
2019-05-19T09:09:18.578Z,19.10
2019-05-19T09:12:07.669Z,19.30
2019-05-19T09:14:57.326Z,19.20
2019-05-19T09:17:46.893Z,19.30
2019-05-19T09:20:35.704Z,19.60
2019-05-19T09:23:24.933Z,19.70
2019-05-19T09:26:14.385Z,20.00
2019-05-19T09:29:03.866Z,20.30
2019-05-19T09:31:53.303Z,20.50
2019-05-19T09:34:42.927Z,20.70
2019-05-19T09:37:31.991Z,20.50
2019-05-19T09:40:20.752Z,20.60
2019-05-19T09:43:09.816Z,20.20
2019-05-19T09:45:59.307Z,20.30
2019-05-19T09:48:50.136Z,19.80
2019-05-19T09:51:39.206Z,19.90
2019-05-19T09:54:28.931Z,19.90
2019-05-19T09:57:18.047Z,19.60
2019-05-19T10:00:09.123Z,19.90
2019-05-19T10:02:58.557Z,19.90
2019-05-19T10:05:48.058Z,19.70
2019-05-19T10:08:41.216Z,20.00
2019-05-19T10:11:55.500Z,19.90
2019-05-19T10:14:44.318Z,20.20
2019-05-19T10:17:33.378Z,20.50
2019-05-19T10:20:22.766Z,20.20
2019-05-19T10:23:12.346Z,20.50
2019-05-19T10:26:01.474Z,20.30
2019-05-19T10:28:50.681Z,20.80
2019-05-19T10:31:39.560Z,20.90
2019-05-19T10:34:28.635Z,21.10
2019-05-19T10:37:18.081Z,21.20
2019-05-19T10:40:08.065Z,21.30
2019-05-19T10:42:57.439Z,20.90
2019-05-19T10:45:48.150Z,21.00
2019-05-19T10:48:37.462Z,21.20
2019-05-19T10:51:26.483Z,21.40
2019-05-19T10:54:15.947Z,21.40
2019-05-19T10:57:05.488Z,21.60
2019-05-19T10:59:54.590Z,21.60
2019-05-19T11:02:43.864Z,21.90
2019-05-19T11:05:32.897Z,22.10
2019-05-19T11:08:22.301Z,22.10
2019-05-19T11:11:11.669Z,22.30
2019-05-19T11:14:01.233Z,22.50
2019-05-19T11:16:50.490Z,22.70
2019-05-19T11:19:39.590Z,23.00
2019-05-19T11:22:28.865Z,23.00
2019-05-19T11:25:32.684Z,22.90
2019-05-19T11:28:08.420Z,22.80
2019-05-19T11:30:57.259Z,23.00
2019-05-19T11:33:47.049Z,23.00
2019-05-19T11:36:35.836Z,23.00
2019-05-19T11:39:24.976Z,23.10
2019-05-19T11:42:14.276Z,22.90
2019-05-19T11:45:07.002Z,23.00
2019-05-19T11:47:55.575Z,23.10
2019-05-19T11:50:45.042Z,23.10
2019-05-19T11:53:34.109Z,23.00
2019-05-19T11:56:22.951Z,23.00
2019-05-19T11:59:12.116Z,23.20
2019-05-19T12:02:01.329Z,23.10
2019-05-19T12:04:50.556Z,23.30
2019-05-19T12:07:40.043Z,23.40
2019-05-19T12:10:29.618Z,23.70
2019-05-19T12:13:19.037Z,23.50
2019-05-19T12:16:08.312Z,23.70
2019-05-19T12:18:57.663Z,23.60
2019-05-19T12:21:47.299Z,23.60
2019-05-19T12:24:36.376Z,23.50
2019-05-19T12:27:26.226Z,23.60
2019-05-19T12:30:20.080Z,23.60
2019-05-19T12:33:08.876Z,23.70
2019-05-19T12:35:57.430Z,23.90
2019-05-19T12:38:46.404Z,24.00
2019-05-19T12:41:35.796Z,24.20
2019-05-19T12:44:24.761Z,24.00
2019-05-19T12:47:13.983Z,23.70
2019-05-19T12:50:03.128Z,23.30
2019-05-19T12:52:52.842Z,23.20
2019-05-19T12:55:41.822Z,23.20
2019-05-19T12:58:31.444Z,23.50
2019-05-19T13:01:20.344Z,23.50
2019-05-19T13:04:09.501Z,23.50
2019-05-19T13:06:58.990Z,23.80
2019-05-19T13:09:47.949Z,24.10
2019-05-19T13:12:36.715Z,24.20
2019-05-19T13:15:26.061Z,24.50
2019-05-19T13:18:15.043Z,24.60
2019-05-19T13:21:04.259Z,24.60
2019-05-19T13:23:55.722Z,24.70
2019-05-19T13:26:56.034Z,24.80
2019-05-19T13:29:35.431Z,24.80
2019-05-19T13:32:24.571Z,24.50
2019-05-19T13:35:14.971Z,24.50
2019-05-19T13:38:04.441Z,24.30
2019-05-19T13:40:54.101Z,24.10
2019-05-19T13:43:43.689Z,24.00
2019-05-19T13:46:32.494Z,23.90
2019-05-19T13:49:21.957Z,23.90
2019-05-19T13:52:11.186Z,24.20
2019-05-19T13:55:00.655Z,24.40
2019-05-19T13:57:49.273Z,24.30
2019-05-19T14:00:38.563Z,24.30
2019-05-19T14:03:28.035Z,24.10
2019-05-19T14:06:17.314Z,24.00
2019-05-19T14:09:07.532Z,23.70
2019-05-19T14:11:56.659Z,23.80
2019-05-19T14:14:46.382Z,23.60
2019-05-19T14:17:36.197Z,23.50
2019-05-19T14:20:24.819Z,23.60
2019-05-19T14:23:13.665Z,23.60
2019-05-19T14:26:02.574Z,23.70
2019-05-19T14:28:51.625Z,23.70
2019-05-19T14:31:40.473Z,23.60
2019-05-19T14:34:29.827Z,23.60
2019-05-19T14:37:18.603Z,23.40
2019-05-19T14:40:08.474Z,23.60
2019-05-19T14:42:59.488Z,23.70
2019-05-19T14:45:48.043Z,23.70
2019-05-19T14:48:36.966Z,23.70
2019-05-19T14:51:26.311Z,23.70
2019-05-19T14:54:15.628Z,23.70
2019-05-19T14:57:04.372Z,24.00
2019-05-19T14:59:53.772Z,24.00
2019-05-19T15:02:43.021Z,23.80
2019-05-19T15:05:31.908Z,23.80
2019-05-19T15:08:21.577Z,23.70
2019-05-19T15:11:10.025Z,23.80
2019-05-19T15:13:59.503Z,23.80
2019-05-19T15:16:48.578Z,23.70
2019-05-19T15:19:37.835Z,23.60
2019-05-19T15:22:27.288Z,23.70
2019-05-19T15:25:16.711Z,23.50
2019-05-19T15:28:05.652Z,23.40
2019-05-19T15:30:55.017Z,23.20
2019-05-19T15:33:44.468Z,22.70
2019-05-19T15:36:33.461Z,22.70
2019-05-19T15:39:22.819Z,22.70
2019-05-19T15:42:11.331Z,22.50
2019-05-19T15:45:00.634Z,22.50
2019-05-19T15:47:49.948Z,22.30
2019-05-19T15:50:39.014Z,22.00
2019-05-19T15:53:28.276Z,21.80
2019-05-19T15:56:17.746Z,21.60
2019-05-19T15:59:07.394Z,21.40
2019-05-19T16:01:56.214Z,21.20
2019-05-19T16:04:45.530Z,21.00
2019-05-19T16:07:34.663Z,20.90
2019-05-19T16:10:23.867Z,20.90
2019-05-19T16:13:12.622Z,21.00
2019-05-19T16:16:01.995Z,21.10
2019-05-19T16:18:53.249Z,21.30
2019-05-19T16:21:41.214Z,21.40
2019-05-19T16:24:30.514Z,21.30
2019-05-19T16:27:19.911Z,21.20
2019-05-19T16:30:11.913Z,21.10
2019-05-19T16:33:01.019Z,21.10
2019-05-19T16:35:50.047Z,21.20
2019-05-19T16:38:39.498Z,21.20
2019-05-19T16:41:28.779Z,21.00
2019-05-19T16:44:18.201Z,21.10
2019-05-19T16:47:07.229Z,21.10
2019-05-19T16:49:56.290Z,21.10
2019-05-19T16:52:45.263Z,21.20
2019-05-19T16:55:34.424Z,21.20
2019-05-19T16:58:23.271Z,21.20
2019-05-19T17:01:12.348Z,21.20
2019-05-19T17:04:01.549Z,21.20
2019-05-19T17:06:50.945Z,21.20
2019-05-19T17:09:40.286Z,21.20
2019-05-19T17:12:29.340Z,21.20
2019-05-19T17:15:19.408Z,21.10
2019-05-19T17:18:08.955Z,21.10
2019-05-19T17:20:58.257Z,21.00
2019-05-19T17:23:47.661Z,21.00
2019-05-19T17:26:37.121Z,21.00
2019-05-19T17:29:26.400Z,20.80
2019-05-19T17:32:15.458Z,20.60
2019-05-19T17:35:06.214Z,20.50
2019-05-19T17:37:55.529Z,20.40
2019-05-19T17:40:45.191Z,20.20
2019-05-19T17:43:34.766Z,20.20
2019-05-19T17:46:24.687Z,20.20
2019-05-19T17:49:13.726Z,20.20
2019-05-19T17:52:03.000Z,20.20
2019-05-19T17:54:52.179Z,20.10
2019-05-19T17:57:42.382Z,20.00
2019-05-19T18:00:38.194Z,20.00
2019-05-19T18:03:27.763Z,20.00
2019-05-19T18:06:17.025Z,19.80
2019-05-19T18:09:06.949Z,19.60
2019-05-19T18:11:56.073Z,19.40
2019-05-19T18:14:45.059Z,19.30
2019-05-19T18:17:33.810Z,19.30
2019-05-19T18:20:24.307Z,19.00
2019-05-19T18:23:13.963Z,18.90
2019-05-19T18:26:03.330Z,18.80
2019-05-19T18:28:52.809Z,18.60
2019-05-19T18:31:42.086Z,18.40
2019-05-19T18:34:31.412Z,18.30
2019-05-19T18:37:20.846Z,18.20
2019-05-19T18:40:09.826Z,18.10
2019-05-19T18:42:59.362Z,18.10
2019-05-19T18:45:48.357Z,18.00
2019-05-19T18:48:37.902Z,17.80
2019-05-19T18:51:26.985Z,17.70
2019-05-19T18:54:16.235Z,17.60
2019-05-19T18:57:05.579Z,17.40
2019-05-19T18:59:55.283Z,17.30
2019-05-19T19:02:47.867Z,17.10
2019-05-19T19:05:35.669Z,16.90
2019-05-19T19:08:25.189Z,16.80
2019-05-19T19:11:14.548Z,16.70
2019-05-19T19:14:03.790Z,16.60
2019-05-19T19:16:52.854Z,16.50
2019-05-19T19:19:42.525Z,16.50
2019-05-19T19:22:31.409Z,16.40
2019-05-19T19:25:20.166Z,16.20
2019-05-19T19:28:09.931Z,16.10
2019-05-19T19:30:58.875Z,16.00
2019-05-19T19:33:48.260Z,15.90
2019-05-19T19:36:37.157Z,15.90
2019-05-19T19:39:26.813Z,15.80
2019-05-19T19:42:16.020Z,15.70
2019-05-19T19:45:06.879Z,15.70
2019-05-19T19:47:56.453Z,15.60
2019-05-19T19:50:45.612Z,15.60
2019-05-19T19:53:34.899Z,15.50
2019-05-19T19:56:23.960Z,15.40
2019-05-19T19:59:13.642Z,15.30
2019-05-19T20:02:02.602Z,15.30
2019-05-19T20:04:51.889Z,15.30
2019-05-19T20:07:41.253Z,15.20
2019-05-19T20:10:30.309Z,15.20
2019-05-19T20:13:19.569Z,15.10
2019-05-19T20:16:09.470Z,15.10
2019-05-19T20:18:59.118Z,15.10
2019-05-19T20:21:48.300Z,15.00
2019-05-19T20:24:37.593Z,14.90
2019-05-19T20:27:26.739Z,14.90
2019-05-19T20:30:16.391Z,14.90
2019-05-19T20:33:06.301Z,14.80
2019-05-19T20:35:55.473Z,14.80
2019-05-19T20:38:44.355Z,14.80
2019-05-19T20:41:32.991Z,14.70
2019-05-19T20:44:21.994Z,14.80
2019-05-19T20:47:11.625Z,14.70
2019-05-19T20:50:00.731Z,14.70
2019-05-19T20:52:49.451Z,14.60
2019-05-19T20:55:38.443Z,14.60
2019-05-19T20:58:28.090Z,14.60
2019-05-19T21:01:16.982Z,14.60
2019-05-19T21:04:06.317Z,14.60
2019-05-19T21:06:55.027Z,14.50
2019-05-19T21:09:44.682Z,14.50
2019-05-19T21:12:33.097Z,14.40
2019-05-19T21:15:22.479Z,14.40
2019-05-19T21:18:11.851Z,14.30
2019-05-19T21:21:01.224Z,14.30
2019-05-19T21:23:50.095Z,14.30
2019-05-19T21:26:39.249Z,14.30
2019-05-19T21:29:27.950Z,14.30
2019-05-19T21:32:16.990Z,14.30
2019-05-19T21:35:07.384Z,14.20
2019-05-19T21:37:57.127Z,14.20
2019-05-19T21:40:46.531Z,14.30
2019-05-19T21:43:35.275Z,14.30
2019-05-19T21:46:24.401Z,14.30
2019-05-19T21:49:13.507Z,14.30
2019-05-19T21:52:02.337Z,14.20
2019-05-19T21:54:52.038Z,14.20
2019-05-19T21:57:40.866Z,14.20
2019-05-19T22:00:30.990Z,14.20
2019-05-19T22:03:20.292Z,14.10
2019-05-19T22:06:09.127Z,14.10
2019-05-19T22:08:58.719Z,14.00
2019-05-19T22:11:47.753Z,14.00
2019-05-19T22:14:37.253Z,14.00
2019-05-19T22:17:25.630Z,14.00
2019-05-19T22:20:14.993Z,13.90
2019-05-19T22:23:05.031Z,13.90
2019-05-19T22:25:54.417Z,13.90
2019-05-19T22:28:43.082Z,13.90
2019-05-19T22:31:36.868Z,13.80
2019-05-19T22:34:22.370Z,13.80
2019-05-19T22:37:11.904Z,13.80
2019-05-19T22:40:01.041Z,13.70
2019-05-19T22:42:50.034Z,13.70
2019-05-19T22:45:39.105Z,13.70
2019-05-19T22:48:28.264Z,13.70
2019-05-19T22:51:17.531Z,13.60
2019-05-19T22:54:06.980Z,13.60
2019-05-19T22:56:56.486Z,13.60
2019-05-19T22:59:45.756Z,13.60
2019-05-19T23:02:35.332Z,13.50
2019-05-19T23:05:24.286Z,13.50
2019-05-19T23:08:13.053Z,13.50
2019-05-19T23:11:02.188Z,13.40
2019-05-19T23:13:51.692Z,13.30
2019-05-19T23:16:41.087Z,13.30
2019-05-19T23:19:30.540Z,13.30
2019-05-19T23:22:19.802Z,13.30
2019-05-19T23:25:09.486Z,13.30
2019-05-19T23:27:58.447Z,13.30
2019-05-19T23:30:47.819Z,13.30
2019-05-19T23:33:37.222Z,13.30
2019-05-19T23:36:26.344Z,13.30
2019-05-19T23:39:15.805Z,13.30
2019-05-19T23:42:05.349Z,13.30
2019-05-19T23:44:54.956Z,13.30
2019-05-19T23:47:43.946Z,13.30
2019-05-19T23:50:33.035Z,13.30
2019-05-19T23:53:22.487Z,13.30
2019-05-19T23:56:11.882Z,13.30
2019-05-19T23:59:00.973Z,13.30
